sensor_id;sensor_type;location;lat;lon;timestamp;P1;P2;P0
65574;PMS5003;52216;54.942;73.394;2023-02-01T00:01:22;6.00;4.00;2.00
65574;PMS5003;52216;54.942;73.394;2023-02-01T00:04:29;4.75;4.00;1.00
65574;PMS5003;52216;54.942;73.394;2023-02-01T00:07:32;4.00;3.00;1.00
65574;PMS5003;52216;54.942;73.394;2023-02-01T00:10:34;4.00;3.33;1.00
65574;PMS5003;52216;54.942;73.394;2023-02-01T00:13:46;4.00;3.67;1.00
65574;PMS5003;52216;54.942;73.394;2023-02-01T00:16:49;4.00;3.00;1.00
65574;PMS5003;52216;54.942;73.394;2023-02-01T00:20:01;4.00;3.00;1.00
65574;PMS5003;52216;54.942;73.394;2023-02-01T00:23:05;3.00;3.00;1.00
65574;PMS5003;52216;54.942;73.394;2023-02-01T00:29:41;3.50;3.00;1.00
65574;PMS5003;52216;54.942;73.394;2023-02-01T00:32:45;11.00;8.75;3.75
65574;PMS5003;52216;54.942;73.394;2023-02-01T00:35:47;16.00;15.00;9.00
65574;PMS5003;52216;54.942;73.394;2023-02-01T00:38:50;21.00;18.00;10.00
65574;PMS5003;52216;54.942;73.394;2023-02-01T00:41:59;22.00;18.33;11.00
65574;PMS5003;52216;54.942;73.394;2023-02-01T00:45:20;18.44;16.11;11.00
65574;PMS5003;52216;54.942;73.394;2023-02-01T00:48:24;13.00;13.00;8.00
65574;PMS5003;52216;54.942;73.394;2023-02-01T00:51:36;11.00;11.00;5.00
65574;PMS5003;52216;54.942;73.394;2023-02-01T00:54:39;11.50;11.00;5.00
65574;PMS5003;52216;54.942;73.394;2023-02-01T00:57:42;13.00;12.00;5.00
65574;PMS5003;52216;54.942;73.394;2023-02-01T01:00:45;8.25;7.00;2.00
65574;PMS5003;52216;54.942;73.394;2023-02-01T01:03:59;4.75;3.25;1.00
65574;PMS5003;52216;54.942;73.394;2023-02-01T01:07:02;4.00;4.00;0.50
65574;PMS5003;52216;54.942;73.394;2023-02-01T01:10:11;3.00;2.00;0.00
65574;PMS5003;52216;54.942;73.394;2023-02-01T01:13:15;4.00;3.75;1.00
65574;PMS5003;52216;54.942;73.394;2023-02-01T01:16:17;4.00;4.00;1.00
65574;PMS5003;52216;54.942;73.394;2023-02-01T01:19:21;3.50;3.00;1.00
65574;PMS5003;52216;54.942;73.394;2023-02-01T01:22:34;4.25;3.00;1.00
65574;PMS5003;52216;54.942;73.394;2023-02-01T01:25:42;4.50;4.00;1.00
65574;PMS5003;52216;54.942;73.394;2023-02-01T01:28:45;7.25;6.00;3.00
65574;PMS5003;52216;54.942;73.394;2023-02-01T01:31:53;10.00;9.50;4.50
65574;PMS5003;52216;54.942;73.394;2023-02-01T01:34:55;14.33;13.00;5.67
65574;PMS5003;52216;54.942;73.394;2023-02-01T01:37:58;16.00;13.25;6.00
65574;PMS5003;52216;54.942;73.394;2023-02-01T01:41:05;17.75;14.75;6.00
65574;PMS5003;52216;54.942;73.394;2023-02-01T01:47:33;16.00;14.00;5.75
65574;PMS5003;52216;54.942;73.394;2023-02-01T01:50:47;16.00;14.25;6.00
65574;PMS5003;52216;54.942;73.394;2023-02-01T01:54:05;20.00;18.00;9.67
65574;PMS5003;52216;54.942;73.394;2023-02-01T01:57:12;25.75;20.25;13.00
65574;PMS5003;52216;54.942;73.394;2023-02-01T02:00:18;33.25;26.25;16.00
65574;PMS5003;52216;54.942;73.394;2023-02-01T02:09:54;33.00;27.25;17.00
65574;PMS5003;52216;54.942;73.394;2023-02-01T02:12:58;33.80;27.00;16.00
65574;PMS5003;52216;54.942;73.394;2023-02-01T02:16:40;35.50;28.50;18.00
65574;PMS5003;52216;54.942;73.394;2023-02-01T02:23:17;28.00;22.50;14.00
65574;PMS5003;52216;54.942;73.394;2023-02-01T02:40:07;10.00;9.25;3.00
65574;PMS5003;52216;54.942;73.394;2023-02-01T02:43:03;8.75;6.00;3.00
65574;PMS5003;52216;54.942;73.394;2023-02-01T02:46:36;6.00;5.00;1.75
65574;PMS5003;52216;54.942;73.394;2023-02-01T02:50:02;4.00;4.00;2.00
65574;PMS5003;52216;54.942;73.394;2023-02-01T02:53:31;8.00;7.00;3.00
65574;PMS5003;52216;54.942;73.394;2023-02-01T02:56:55;12.00;9.25;3.00
65574;PMS5003;52216;54.942;73.394;2023-02-01T03:00:19;11.00;9.00;4.00
65574;PMS5003;52216;54.942;73.394;2023-02-01T03:03:47;10.00;6.25;3.00
65574;PMS5003;52216;54.942;73.394;2023-02-01T03:07:13;7.00;5.00;3.00
65574;PMS5003;52216;54.942;73.394;2023-02-01T03:10:24;7.75;7.00;3.00
65574;PMS5003;52216;54.942;73.394;2023-02-01T03:13:48;8.00;6.00;3.00
65574;PMS5003;52216;54.942;73.394;2023-02-01T03:16:55;7.67;6.00;3.00
65574;PMS5003;52216;54.942;73.394;2023-02-01T03:20:01;9.25;6.00;3.00
65574;PMS5003;52216;54.942;73.394;2023-02-01T03:23:08;10.75;8.25;4.00
65574;PMS5003;52216;54.942;73.394;2023-02-01T03:26:13;11.00;9.00;3.00
65574;PMS5003;52216;54.942;73.394;2023-02-01T03:29:22;14.00;10.00;5.00
65574;PMS5003;52216;54.942;73.394;2023-02-01T03:32:37;11.25;11.00;4.50
65574;PMS5003;52216;54.942;73.394;2023-02-01T03:39:27;12.00;11.00;4.00
65574;PMS5003;52216;54.942;73.394;2023-02-01T03:42:34;13.00;11.00;4.25
65574;PMS5003;52216;54.942;73.394;2023-02-01T03:45:43;13.00;11.00;3.67
65574;PMS5003;52216;54.942;73.394;2023-02-01T03:48:56;12.75;11.00;3.75
65574;PMS5003;52216;54.942;73.394;2023-02-01T03:52:05;11.00;10.00;3.00
65574;PMS5003;52216;54.942;73.394;2023-02-01T03:55:12;10.75;10.00;3.00
65574;PMS5003;52216;54.942;73.394;2023-02-01T03:58:18;12.25;11.00;4.00
65574;PMS5003;52216;54.942;73.394;2023-02-01T04:01:28;11.75;9.25;3.00
65574;PMS5003;52216;54.942;73.394;2023-02-01T04:04:31;10.00;9.67;3.00
65574;PMS5003;52216;54.942;73.394;2023-02-01T04:07:35;10.25;10.00;3.00
65574;PMS5003;52216;54.942;73.394;2023-02-01T04:10:38;9.50;7.00;3.00
65574;PMS5003;52216;54.942;73.394;2023-02-01T04:13:41;12.00;9.50;4.00
65574;PMS5003;52216;54.942;73.394;2023-02-01T04:16:45;12.00;11.00;3.00
65574;PMS5003;52216;54.942;73.394;2023-02-01T04:19:58;10.00;10.00;3.00
65574;PMS5003;52216;54.942;73.394;2023-02-01T04:23:01;11.00;10.00;3.00
65574;PMS5003;52216;54.942;73.394;2023-02-01T04:26:04;12.00;10.00;3.25
65574;PMS5003;52216;54.942;73.394;2023-02-01T04:29:06;11.00;10.00;4.00
65574;PMS5003;52216;54.942;73.394;2023-02-01T04:32:09;11.00;10.00;4.50
65574;PMS5003;52216;54.942;73.394;2023-02-01T04:35:12;8.25;7.00;3.00
65574;PMS5003;52216;54.942;73.394;2023-02-01T04:38:15;10.00;8.00;3.00
65574;PMS5003;52216;54.942;73.394;2023-02-01T04:41:19;9.50;8.00;3.00
65574;PMS5003;52216;54.942;73.394;2023-02-01T04:44:26;10.00;8.00;3.00
65574;PMS5003;52216;54.942;73.394;2023-02-01T04:47:29;7.50;6.00;3.00
65574;PMS5003;52216;54.942;73.394;2023-02-01T04:50:37;5.00;5.00;1.00
65574;PMS5003;52216;54.942;73.394;2023-02-01T04:53:40;6.00;6.00;3.00
65574;PMS5003;52216;54.942;73.394;2023-02-01T04:56:49;5.75;4.00;2.00
65574;PMS5003;52216;54.942;73.394;2023-02-01T05:00:03;6.25;6.25;2.00
65574;PMS5003;52216;54.942;73.394;2023-02-01T05:03:06;6.00;5.00;2.00
65574;PMS5003;52216;54.942;73.394;2023-02-01T05:06:09;5.25;5.00;1.00
65574;PMS5003;52216;54.942;73.394;2023-02-01T05:09:13;5.50;5.00;2.00
65574;PMS5003;52216;54.942;73.394;2023-02-01T05:12:17;5.00;5.00;1.25
65574;PMS5003;52216;54.942;73.394;2023-02-01T05:15:50;4.75;4.50;1.00
65574;PMS5003;52216;54.942;73.394;2023-02-01T05:18:53;6.75;6.00;2.00
65574;PMS5003;52216;54.942;73.394;2023-02-01T05:21:56;8.00;6.00;2.75
65574;PMS5003;52216;54.942;73.394;2023-02-01T05:25:00;8.00;5.75;3.00
65574;PMS5003;52216;54.942;73.394;2023-02-01T05:28:11;8.00;6.00;3.00
65574;PMS5003;52216;54.942;73.394;2023-02-01T05:31:14;9.25;7.00;3.75
65574;PMS5003;52216;54.942;73.394;2023-02-01T05:34:22;8.33;6.00;3.00
65574;PMS5003;52216;54.942;73.394;2023-02-01T05:37:24;9.00;8.25;3.50
65574;PMS5003;52216;54.942;73.394;2023-02-01T05:40:26;10.00;10.00;3.00
65574;PMS5003;52216;54.942;73.394;2023-02-01T05:43:28;11.00;11.00;4.00
65574;PMS5003;52216;54.942;73.394;2023-02-01T05:46:32;10.00;10.00;3.00
65574;PMS5003;52216;54.942;73.394;2023-02-01T05:49:46;10.00;9.25;4.00
65574;PMS5003;52216;54.942;73.394;2023-02-01T05:52:54;10.00;10.00;3.00
65574;PMS5003;52216;54.942;73.394;2023-02-01T05:55:57;9.00;8.00;3.75
65574;PMS5003;52216;54.942;73.394;2023-02-01T05:59:00;10.00;7.00;3.00
65574;PMS5003;52216;54.942;73.394;2023-02-01T06:02:08;5.00;4.00;2.00
65574;PMS5003;52216;54.942;73.394;2023-02-01T06:05:12;6.00;5.00;2.25
65574;PMS5003;52216;54.942;73.394;2023-02-01T06:08:26;5.50;5.00;2.25
65574;PMS5003;52216;54.942;73.394;2023-02-01T06:11:29;8.75;7.75;4.00
65574;PMS5003;52216;54.942;73.394;2023-02-01T06:14:32;7.75;7.00;3.00
65574;PMS5003;52216;54.942;73.394;2023-02-01T06:17:35;10.75;9.00;4.00
65574;PMS5003;52216;54.942;73.394;2023-02-01T06:20:38;13.00;12.00;5.00
65574;PMS5003;52216;54.942;73.394;2023-02-01T06:23:52;12.00;11.75;4.75
65574;PMS5003;52216;54.942;73.394;2023-02-01T06:26:55;13.33;11.00;4.00
65574;PMS5003;52216;54.942;73.394;2023-02-01T06:29:59;12.25;11.00;3.50
65574;PMS5003;52216;54.942;73.394;2023-02-01T06:33:08;12.00;10.00;2.00
65574;PMS5003;52216;54.942;73.394;2023-02-01T06:36:10;11.75;10.00;2.50
65574;PMS5003;52216;54.942;73.394;2023-02-01T06:39:19;9.50;8.00;3.00
65574;PMS5003;52216;54.942;73.394;2023-02-01T06:42:22;6.50;6.00;2.50
65574;PMS5003;52216;54.942;73.394;2023-02-01T06:45:25;5.00;5.00;1.00
65574;PMS5003;52216;54.942;73.394;2023-02-01T06:48:40;7.75;7.00;3.00
65574;PMS5003;52216;54.942;73.394;2023-02-01T06:51:43;8.75;6.75;3.00
65574;PMS5003;52216;54.942;73.394;2023-02-01T06:54:46;7.50;7.50;4.00
65574;PMS5003;52216;54.942;73.394;2023-02-01T06:57:54;11.00;10.00;3.00
65574;PMS5003;52216;54.942;73.394;2023-02-01T07:01:09;10.75;9.00;3.00
65574;PMS5003;52216;54.942;73.394;2023-02-01T07:04:17;9.25;7.00;3.00
65574;PMS5003;52216;54.942;73.394;2023-02-01T07:07:20;10.75;9.00;3.00
65574;PMS5003;52216;54.942;73.394;2023-02-01T07:10:24;11.00;9.00;3.00
65574;PMS5003;52216;54.942;73.394;2023-02-01T07:13:26;12.00;8.25;4.00
65574;PMS5003;52216;54.942;73.394;2023-02-01T07:16:35;13.00;10.00;4.00
65574;PMS5003;52216;54.942;73.394;2023-02-01T07:19:38;13.00;10.75;5.00
65574;PMS5003;52216;54.942;73.394;2023-02-01T07:22:45;11.00;9.00;3.00
65574;PMS5003;52216;54.942;73.394;2023-02-01T07:25:52;11.25;10.00;4.00
65574;PMS5003;52216;54.942;73.394;2023-02-01T07:29:05;10.50;9.00;3.00
65574;PMS5003;52216;54.942;73.394;2023-02-01T07:32:13;12.25;11.75;4.50
65574;PMS5003;52216;54.942;73.394;2023-02-01T07:35:19;12.00;11.00;3.00
65574;PMS5003;52216;54.942;73.394;2023-02-01T07:38:22;12.75;11.75;5.00
65574;PMS5003;52216;54.942;73.394;2023-02-01T07:41:25;14.50;14.00;5.75
65574;PMS5003;52216;54.942;73.394;2023-02-01T07:44:27;13.00;12.50;5.00
65574;PMS5003;52216;54.942;73.394;2023-02-01T07:47:30;12.00;11.00;4.00
65574;PMS5003;52216;54.942;73.394;2023-02-01T07:50:40;9.00;8.00;3.00
65574;PMS5003;52216;54.942;73.394;2023-02-01T07:53:43;7.00;5.00;2.00
65574;PMS5003;52216;54.942;73.394;2023-02-01T07:56:47;7.25;6.00;3.00
65574;PMS5003;52216;54.942;73.394;2023-02-01T07:59:50;9.00;6.75;2.25
65574;PMS5003;52216;54.942;73.394;2023-02-01T08:03:14;7.25;6.25;3.00
65574;PMS5003;52216;54.942;73.394;2023-02-01T08:06:17;8.00;6.00;3.00
65574;PMS5003;52216;54.942;73.394;2023-02-01T08:09:21;9.00;7.00;3.00
65574;PMS5003;52216;54.942;73.394;2023-02-01T08:12:25;11.00;9.00;4.25
65574;PMS5003;52216;54.942;73.394;2023-02-01T08:15:28;11.00;11.00;4.00
65574;PMS5003;52216;54.942;73.394;2023-02-01T08:18:37;11.75;11.00;5.00
65574;PMS5003;52216;54.942;73.394;2023-02-01T08:21:41;14.25;12.75;5.00
65574;PMS5003;52216;54.942;73.394;2023-02-01T08:24:43;15.00;13.00;5.00
65574;PMS5003;52216;54.942;73.394;2023-02-01T08:27:46;13.67;12.00;5.00
65574;PMS5003;52216;54.942;73.394;2023-02-01T08:31:02;13.00;11.00;5.00
65574;PMS5003;52216;54.942;73.394;2023-02-01T08:34:10;13.00;12.00;4.67
65574;PMS5003;52216;54.942;73.394;2023-02-01T08:37:13;11.33;11.00;4.67
65574;PMS5003;52216;54.942;73.394;2023-02-01T08:40:15;12.00;10.00;3.00
65574;PMS5003;52216;54.942;73.394;2023-02-01T08:43:27;12.00;10.25;5.00
65574;PMS5003;52216;54.942;73.394;2023-02-01T08:46:29;13.33;11.00;4.00
65574;PMS5003;52216;54.942;73.394;2023-02-01T08:49:59;12.00;11.00;3.00
65574;PMS5003;52216;54.942;73.394;2023-02-01T08:53:12;11.00;11.00;4.00
65574;PMS5003;52216;54.942;73.394;2023-02-01T08:56:18;13.00;10.50;4.00
65574;PMS5003;52216;54.942;73.394;2023-02-01T09:00:00;13.00;11.60;3.20
65574;PMS5003;52216;54.942;73.394;2023-02-01T09:03:02;12.75;12.00;4.50
65574;PMS5003;52216;54.942;73.394;2023-02-01T09:06:07;11.00;11.00;3.00
65574;PMS5003;52216;54.942;73.394;2023-02-01T09:09:11;10.00;9.00;3.00
65574;PMS5003;52216;54.942;73.394;2023-02-01T09:12:12;11.50;10.00;3.00
65574;PMS5003;52216;54.942;73.394;2023-02-01T09:15:15;12.50;10.00;3.00
65574;PMS5003;52216;54.942;73.394;2023-02-01T09:18:22;12.25;9.00;3.00
65574;PMS5003;52216;54.942;73.394;2023-02-01T09:21:26;11.50;9.00;3.00
65574;PMS5003;52216;54.942;73.394;2023-02-01T09:24:29;11.00;9.00;3.00
65574;PMS5003;52216;54.942;73.394;2023-02-01T09:27:33;11.00;9.00;3.00
65574;PMS5003;52216;54.942;73.394;2023-02-01T09:30:41;10.25;7.00;3.00
65574;PMS5003;52216;54.942;73.394;2023-02-01T09:33:44;12.25;7.75;4.00
65574;PMS5003;52216;54.942;73.394;2023-02-01T09:36:56;11.00;7.25;3.00
65574;PMS5003;52216;54.942;73.394;2023-02-01T09:39:57;10.00;7.75;3.50
65574;PMS5003;52216;54.942;73.394;2023-02-01T09:46:23;14.67;13.00;5.00
65574;PMS5003;52216;54.942;73.394;2023-02-01T09:49:28;15.00;14.67;6.00
65574;PMS5003;52216;54.942;73.394;2023-02-01T09:52:54;18.00;17.00;7.00
65574;PMS5003;52216;54.942;73.394;2023-02-01T09:55:54;19.00;17.00;7.00
65574;PMS5003;52216;54.942;73.394;2023-02-01T09:59:08;18.00;16.00;8.00
65574;PMS5003;52216;54.942;73.394;2023-02-01T10:02:14;14.50;14.00;6.00
65574;PMS5003;52216;54.942;73.394;2023-02-01T10:05:21;16.25;14.50;5.50
65574;PMS5003;52216;54.942;73.394;2023-02-01T10:18:23;32.00;24.50;15.00
65574;PMS5003;52216;54.942;73.394;2023-02-01T10:24:58;28.75;22.50;13.50
65574;PMS5003;52216;54.942;73.394;2023-02-01T10:28:09;23.75;19.50;12.00
65574;PMS5003;52216;54.942;73.394;2023-02-01T10:31:17;19.00;18.00;10.00
65574;PMS5003;52216;54.942;73.394;2023-02-01T10:37:28;17.00;14.00;7.00
65574;PMS5003;52216;54.942;73.394;2023-02-01T10:40:41;14.25;12.50;4.50
65574;PMS5003;52216;54.942;73.394;2023-02-01T10:43:48;14.00;12.00;4.00
65574;PMS5003;52216;54.942;73.394;2023-02-01T10:47:02;13.75;12.00;5.00
65574;PMS5003;52216;54.942;73.394;2023-02-01T10:53:41;13.00;11.00;4.25
65574;PMS5003;52216;54.942;73.394;2023-02-01T10:56:44;12.00;12.00;3.00
65574;PMS5003;52216;54.942;73.394;2023-02-01T10:59:59;10.00;9.00;3.00
65574;PMS5003;52216;54.942;73.394;2023-02-01T11:13:36;9.00;7.00;3.00
65574;PMS5003;52216;54.942;73.394;2023-02-01T11:16:39;9.00;5.00;3.00
65574;PMS5003;52216;54.942;73.394;2023-02-01T11:19:46;12.50;9.00;4.00
65574;PMS5003;52216;54.942;73.394;2023-02-01T11:22:48;11.75;9.00;3.00
65574;PMS5003;52216;54.942;73.394;2023-02-01T11:25:56;7.00;5.00;2.00
65574;PMS5003;52216;54.942;73.394;2023-02-01T11:29:04;10.50;8.50;3.50
65574;PMS5003;52216;54.942;73.394;2023-02-01T11:32:19;10.00;7.00;3.00
65574;PMS5003;52216;54.942;73.394;2023-02-01T11:35:23;12.00;10.00;3.00
65574;PMS5003;52216;54.942;73.394;2023-02-01T11:38:36;12.75;11.00;3.50
65574;PMS5003;52216;54.942;73.394;2023-02-01T11:41:42;10.25;8.00;3.00
65574;PMS5003;52216;54.942;73.394;2023-02-01T11:44:46;12.50;10.25;3.50
65574;PMS5003;52216;54.942;73.394;2023-02-01T11:47:51;13.00;11.00;5.00
65574;PMS5003;52216;54.942;73.394;2023-02-01T11:57:17;18.00;14.00;7.00
65574;PMS5003;52216;54.942;73.394;2023-02-01T12:10:10;19.00;17.67;11.67
65574;PMS5003;52216;54.942;73.394;2023-02-01T12:36:18;25.00;20.00;12.00
65574;PMS5003;52216;54.942;73.394;2023-02-01T12:39:57;19.25;17.00;10.50
65574;PMS5003;52216;54.942;73.394;2023-02-01T12:46:19;14.50;13.00;5.75
65574;PMS5003;52216;54.942;73.394;2023-02-01T12:49:40;14.00;14.00;5.00
65574;PMS5003;52216;54.942;73.394;2023-02-01T12:52:53;14.00;13.50;5.25
65574;PMS5003;52216;54.942;73.394;2023-02-01T12:55:57;14.75;14.25;5.25
65574;PMS5003;52216;54.942;73.394;2023-02-01T12:59:02;14.00;14.00;4.33
65574;PMS5003;52216;54.942;73.394;2023-02-01T13:12:03;17.00;16.75;8.00
65574;PMS5003;52216;54.942;73.394;2023-02-01T13:18:41;18.67;17.00;8.00
65574;PMS5003;52216;54.942;73.394;2023-02-01T13:22:03;18.00;17.00;9.00
65574;PMS5003;52216;54.942;73.394;2023-02-01T13:25:26;12.00;12.00;6.33
65574;PMS5003;52216;54.942;73.394;2023-02-01T13:29:13;15.25;14.25;6.50
65574;PMS5003;52216;54.942;73.394;2023-02-01T13:42:15;19.00;17.00;10.00
65574;PMS5003;52216;54.942;73.394;2023-02-01T13:45:27;18.25;16.75;11.00
65574;PMS5003;52216;54.942;73.394;2023-02-01T13:51:50;20.00;18.00;11.00
65574;PMS5003;52216;54.942;73.394;2023-02-01T13:55:13;17.00;17.00;10.00
65574;PMS5003;52216;54.942;73.394;2023-02-01T13:58:18;22.20;19.60;12.00
65574;PMS5003;52216;54.942;73.394;2023-02-01T14:17:41;16.00;16.00;7.00
65574;PMS5003;52216;54.942;73.394;2023-02-01T14:20:49;14.33;12.00;5.00
65574;PMS5003;52216;54.942;73.394;2023-02-01T14:24:00;16.00;14.00;5.00
65574;PMS5003;52216;54.942;73.394;2023-02-01T14:30:15;16.67;14.00;5.00
65574;PMS5003;52216;54.942;73.394;2023-02-01T14:33:28;12.00;11.50;4.50
65574;PMS5003;52216;54.942;73.394;2023-02-01T14:36:47;12.75;11.25;5.00
65574;PMS5003;52216;54.942;73.394;2023-02-01T14:43:07;12.00;11.00;3.00
65574;PMS5003;52216;54.942;73.394;2023-02-01T14:46:09;12.00;10.00;3.00
65574;PMS5003;52216;54.942;73.394;2023-02-01T14:49:13;12.50;12.00;5.50
65574;PMS5003;52216;54.942;73.394;2023-02-01T14:52:16;13.33;13.00;5.00
65574;PMS5003;52216;54.942;73.394;2023-02-01T14:55:27;12.00;10.75;4.00
65574;PMS5003;52216;54.942;73.394;2023-02-01T14:58:48;14.00;11.00;4.00
65574;PMS5003;52216;54.942;73.394;2023-02-01T15:01:56;18.00;16.00;8.67
65574;PMS5003;52216;54.942;73.394;2023-02-01T15:04:58;19.50;17.50;10.00
65574;PMS5003;52216;54.942;73.394;2023-02-01T15:08:39;18.50;17.50;11.00
65574;PMS5003;52216;54.942;73.394;2023-02-01T15:11:53;21.25;19.00;12.00
65574;PMS5003;52216;54.942;73.394;2023-02-01T15:15:12;22.00;19.00;10.00
65574;PMS5003;52216;54.942;73.394;2023-02-01T15:18:16;23.00;19.00;11.00
65574;PMS5003;52216;54.942;73.394;2023-02-01T15:21:22;23.00;19.25;12.00
65574;PMS5003;52216;54.942;73.394;2023-02-01T15:24:27;22.00;20.00;12.00
65574;PMS5003;52216;54.942;73.394;2023-02-01T15:27:30;21.00;19.00;12.00
65574;PMS5003;52216;54.942;73.394;2023-02-01T15:30:57;20.00;17.00;10.00
65574;PMS5003;52216;54.942;73.394;2023-02-01T15:34:00;21.00;18.00;11.00
65574;PMS5003;52216;54.942;73.394;2023-02-01T15:37:04;17.00;16.00;10.00
65574;PMS5003;52216;54.942;73.394;2023-02-01T15:43:22;15.25;14.00;7.00
65574;PMS5003;52216;54.942;73.394;2023-02-01T15:46:39;14.33;13.33;6.67
65574;PMS5003;52216;54.942;73.394;2023-02-01T15:49:47;15.25;13.50;6.25
65574;PMS5003;52216;54.942;73.394;2023-02-01T15:52:53;14.00;13.00;5.00
65574;PMS5003;52216;54.942;73.394;2023-02-01T15:56:07;17.00;15.75;7.75
65574;PMS5003;52216;54.942;73.394;2023-02-01T15:59:17;17.50;15.25;9.00
65574;PMS5003;52216;54.942;73.394;2023-02-01T16:02:35;16.00;13.50;6.00
65574;PMS5003;52216;54.942;73.394;2023-02-01T16:05:40;13.50;12.00;4.25
65574;PMS5003;52216;54.942;73.394;2023-02-01T16:08:54;11.00;10.00;3.00
65574;PMS5003;52216;54.942;73.394;2023-02-01T16:11:58;14.00;13.00;5.00
65574;PMS5003;52216;54.942;73.394;2023-02-01T16:15:06;15.00;12.00;5.00
65574;PMS5003;52216;54.942;73.394;2023-02-01T16:18:12;14.50;14.00;5.25
65574;PMS5003;52216;54.942;73.394;2023-02-01T16:21:20;14.00;12.00;5.00
65574;PMS5003;52216;54.942;73.394;2023-02-01T16:24:28;14.00;14.00;5.25
65574;PMS5003;52216;54.942;73.394;2023-02-01T16:27:30;14.00;13.00;6.00
65574;PMS5003;52216;54.942;73.394;2023-02-01T16:30:39;14.00;12.33;5.00
65574;PMS5003;52216;54.942;73.394;2023-02-01T16:33:42;14.25;12.00;5.00
65574;PMS5003;52216;54.942;73.394;2023-02-01T16:36:48;15.67;13.00;4.00
65574;PMS5003;52216;54.942;73.394;2023-02-01T16:39:59;15.75;13.75;4.50
65574;PMS5003;52216;54.942;73.394;2023-02-01T16:43:05;18.00;16.00;8.00
65574;PMS5003;52216;54.942;73.394;2023-02-01T16:46:12;18.00;16.00;7.00
65574;PMS5003;52216;54.942;73.394;2023-02-01T16:49:21;16.00;14.00;5.00
65574;PMS5003;52216;54.942;73.394;2023-02-01T16:52:24;15.75;14.00;5.25
65574;PMS5003;52216;54.942;73.394;2023-02-01T16:55:32;18.00;15.25;6.50
65574;PMS5003;52216;54.942;73.394;2023-02-01T16:58:36;18.00;16.00;8.00
65574;PMS5003;52216;54.942;73.394;2023-02-01T17:01:50;18.00;17.00;7.00
65574;PMS5003;52216;54.942;73.394;2023-02-01T17:04:52;18.00;17.00;7.00
65574;PMS5003;52216;54.942;73.394;2023-02-01T17:07:55;17.00;16.00;6.00
65574;PMS5003;52216;54.942;73.394;2023-02-01T17:11:05;15.67;13.33;5.33
65574;PMS5003;52216;54.942;73.394;2023-02-01T17:14:15;17.00;16.00;8.00
65574;PMS5003;52216;54.942;73.394;2023-02-01T17:17:19;16.00;14.00;6.00
65574;PMS5003;52216;54.942;73.394;2023-02-01T17:20:24;15.00;15.00;6.00
65574;PMS5003;52216;54.942;73.394;2023-02-01T17:23:26;14.00;14.00;5.00
65574;PMS5003;52216;54.942;73.394;2023-02-01T17:26:38;14.00;12.00;5.00
65574;PMS5003;52216;54.942;73.394;2023-02-01T17:29:41;13.00;10.00;4.00
65574;PMS5003;52216;54.942;73.394;2023-02-01T17:32:54;14.50;12.00;5.00
65574;PMS5003;52216;54.942;73.394;2023-02-01T17:35:59;13.33;12.00;3.00
65574;PMS5003;52216;54.942;73.394;2023-02-01T17:39:02;12.50;11.00;4.75
65574;PMS5003;52216;54.942;73.394;2023-02-01T17:42:08;13.75;11.25;4.50
65574;PMS5003;52216;54.942;73.394;2023-02-01T17:46:14;12.50;11.00;4.00
65574;PMS5003;52216;54.942;73.394;2023-02-01T17:48:49;12.75;12.00;3.25
65574;PMS5003;52216;54.942;73.394;2023-02-01T17:52:02;13.75;12.00;4.00
65574;PMS5003;52216;54.942;73.394;2023-02-01T17:55:18;11.00;10.00;3.00
65574;PMS5003;52216;54.942;73.394;2023-02-01T17:58:25;13.67;12.00;3.00
65574;PMS5003;52216;54.942;73.394;2023-02-01T18:01:37;15.75;12.00;4.00
65574;PMS5003;52216;54.942;73.394;2023-02-01T18:04:44;12.00;10.00;3.75
65574;PMS5003;52216;54.942;73.394;2023-02-01T18:07:47;13.00;12.00;5.00
65574;PMS5003;52216;54.942;73.394;2023-02-01T18:10:58;10.50;10.00;3.00
65574;PMS5003;52216;54.942;73.394;2023-02-01T18:14:02;10.75;10.00;4.00
65574;PMS5003;52216;54.942;73.394;2023-02-01T18:17:04;11.00;10.50;4.00
65574;PMS5003;52216;54.942;73.394;2023-02-01T18:20:06;13.75;12.00;5.00
65574;PMS5003;52216;54.942;73.394;2023-02-01T18:23:13;15.00;12.75;7.00
65574;PMS5003;52216;54.942;73.394;2023-02-01T18:26:17;15.00;12.00;5.00
65574;PMS5003;52216;54.942;73.394;2023-02-01T18:29:21;12.75;11.00;4.00
65574;PMS5003;52216;54.942;73.394;2023-02-01T18:32:24;10.00;10.00;4.00
65574;PMS5003;52216;54.942;73.394;2023-02-01T18:35:27;9.75;8.25;2.00
65574;PMS5003;52216;54.942;73.394;2023-02-01T18:38:33;9.00;7.75;3.00
65574;PMS5003;52216;54.942;73.394;2023-02-01T18:41:36;11.00;10.00;4.00
65574;PMS5003;52216;54.942;73.394;2023-02-01T18:44:38;12.33;10.33;4.33
65574;PMS5003;52216;54.942;73.394;2023-02-01T18:47:51;12.00;10.75;3.00
65574;PMS5003;52216;54.942;73.394;2023-02-01T18:50:58;10.00;9.00;4.00
65574;PMS5003;52216;54.942;73.394;2023-02-01T18:54:02;8.50;7.75;3.00
65574;PMS5003;52216;54.942;73.394;2023-02-01T18:57:05;8.67;8.00;3.67
65574;PMS5003;52216;54.942;73.394;2023-02-01T19:00:09;12.25;10.25;3.50
65574;PMS5003;52216;54.942;73.394;2023-02-01T19:03:14;14.00;12.00;4.00
65574;PMS5003;52216;54.942;73.394;2023-02-01T19:06:22;12.00;11.00;5.00
65574;PMS5003;52216;54.942;73.394;2023-02-01T19:09:33;12.50;12.00;5.00
65574;PMS5003;52216;54.942;73.394;2023-02-01T19:12:36;12.00;11.00;4.00
65574;PMS5003;52216;54.942;73.394;2023-02-01T19:15:44;12.00;10.00;3.00
65574;PMS5003;52216;54.942;73.394;2023-02-01T19:18:50;11.75;8.25;3.00
65574;PMS5003;52216;54.942;73.394;2023-02-01T19:21:54;12.00;8.50;4.50
65574;PMS5003;52216;54.942;73.394;2023-02-01T19:25:23;11.00;10.00;5.00
65574;PMS5003;52216;54.942;73.394;2023-02-01T19:28:32;11.50;11.00;4.00
65574;PMS5003;52216;54.942;73.394;2023-02-01T19:31:45;10.00;10.00;4.00
65574;PMS5003;52216;54.942;73.394;2023-02-01T19:34:50;7.50;7.00;3.00
65574;PMS5003;52216;54.942;73.394;2023-02-01T19:37:53;11.00;10.00;3.75
65574;PMS5003;52216;54.942;73.394;2023-02-01T19:40:56;10.00;9.00;3.00
65574;PMS5003;52216;54.942;73.394;2023-02-01T19:44:00;12.00;9.75;3.00
65574;PMS5003;52216;54.942;73.394;2023-02-01T19:47:03;10.00;10.00;4.00
65574;PMS5003;52216;54.942;73.394;2023-02-01T19:50:07;12.00;11.00;4.25
65574;PMS5003;52216;54.942;73.394;2023-02-01T19:53:11;10.00;7.75;3.00
65574;PMS5003;52216;54.942;73.394;2023-02-01T19:56:15;10.00;6.75;2.50
65574;PMS5003;52216;54.942;73.394;2023-02-01T19:59:28;10.00;7.00;2.50
65574;PMS5003;52216;54.942;73.394;2023-02-01T20:02:31;10.00;8.00;3.00
65574;PMS5003;52216;54.942;73.394;2023-02-01T20:05:34;10.00;9.25;5.00
65574;PMS5003;52216;54.942;73.394;2023-02-01T20:08:42;13.00;11.00;5.00
65574;PMS5003;52216;54.942;73.394;2023-02-01T20:11:44;13.50;11.00;5.00
65574;PMS5003;52216;54.942;73.394;2023-02-01T20:14:47;12.00;9.00;3.00
65574;PMS5003;52216;54.942;73.394;2023-02-01T20:17:50;12.00;10.33;3.00
65574;PMS5003;52216;54.942;73.394;2023-02-01T20:20:56;13.25;11.00;3.00
65574;PMS5003;52216;54.942;73.394;2023-02-01T20:24:03;12.67;10.00;3.00